Moffett Field NAS, California
Current Conditions -  °F | °C
As of 7:56 PM on Tuesday 27 Jan 2015 (Local Time) from KNUQ Reporting Station
Clear Clear  
Wind Chill: 58°   Ceiling: Unl
Heat Index: 58°   Visibility: 10mi
Dew Point: 45°   Wind: 0mph
Humidity: 62%   Direction: NA
Pressure: 30.24"   Gusts: NA
Location:  37.4154°N, 122.058°W
Report Text: KNUQ 280356Z 00000KT 10SM CLR 14/07 A3024 RMK AO2 SLP243 T01440072
Loading
Personal Weather Stations






























Interactive Weather Map New forecast layout! Learn more

10-Day Weather Forecast

Advertisements
Track Severe Weather on mobile